»·PEaware :: WAT446 KSEA-KSAC

WAT446 :: KSEA-KSAC

FLIGHT INFORMATION

Flight Status: Arrived
Operator:
Walker Air Transport
More flights by this operator :: More flights under this callsign
Pilot: Robert C. (30425)
Aircraft: Unknown
(EPIC)
More flights by this aircraft type
Origin: KSEA Seattle-Tacoma Intl
United States
Destination: KSAC Sacramento Executive
United States
More flights between these airports :: More routes between these airports
Route: SUMMA2 SUMMA LMT SAC
File this flight plan on PilotEdge
Remarks:
Altitude:
(Current/Filed)
23,000ft
Speed:
(Current/Filed)
275kts
Departed: 07-Feb-21 08:14 PM
Arrived: 07-Feb-21 10:08 PM
Distance/Time
Traveled:
537nm/1:54
Distance/Time
To Go:
Arrived

Flight Plot

Page will automatically refresh every two minutes.

Flight plan parsing failed; only flown route is shown


Map Options




Map Legend


Flown Route
Filed Route
Departure Airport
Arrival Airport
Navaid (VOR, NDB)
Fix

Horizontal Profiles

Position Reports

Time Latitude Longitude Heading Altitude Ground
Speed
07-Feb-21 19:38 47.439491 -122.315520 61 473ft 0kts
07-Feb-21 19:39 47.439491 -122.315520 61 473ft 0kts
07-Feb-21 19:40 47.439491 -122.315520 61 473ft 0kts
07-Feb-21 19:41 47.439491 -122.315520 61 473ft 0kts
07-Feb-21 19:42 47.439491 -122.315520 61 473ft 0kts
07-Feb-21 19:43 47.439491 -122.315520 61 473ft 0kts
07-Feb-21 19:44 47.439491 -122.315520 61 473ft 0kts
07-Feb-21 19:45 47.439491 -122.315520 61 473ft 0kts
07-Feb-21 19:46 47.439491 -122.315520 61 473ft 0kts
07-Feb-21 19:47 47.439491 -122.315520 61 473ft 0kts
07-Feb-21 19:48 47.439491 -122.315520 61 473ft 0kts
07-Feb-21 19:49 47.439491 -122.315520 61 473ft 0kts
07-Feb-21 19:50 47.439491 -122.315520 61 473ft 0kts
07-Feb-21 19:51 47.439491 -122.315520 61 473ft 0kts
07-Feb-21 19:52 47.439491 -122.315520 61 473ft 0kts
07-Feb-21 19:53 47.439491 -122.315520 61 473ft 0kts
07-Feb-21 19:54 47.439491 -122.315520 61 473ft 0kts
07-Feb-21 19:55 47.439491 -122.315520 61 473ft 0kts
07-Feb-21 19:56 47.439491 -122.315520 61 473ft 0kts
07-Feb-21 19:57 47.439491 -122.315520 61 473ft 0kts
07-Feb-21 19:58 47.439491 -122.315520 61 473ft 0kts
07-Feb-21 19:59 47.439491 -122.315520 61 473ft 0kts
07-Feb-21 20:00 47.439491 -122.315520 61 473ft 0kts
07-Feb-21 20:01 47.439491 -122.315520 61 473ft 0kts
07-Feb-21 20:02 47.439491 -122.315520 61 473ft 0kts
07-Feb-21 20:03 47.439491 -122.315520 61 473ft 0kts
07-Feb-21 20:04 47.439491 -122.315520 61 473ft 0kts
07-Feb-21 20:05 47.439491 -122.315520 61 473ft 0kts
07-Feb-21 20:06 47.439491 -122.315520 61 473ft 0kts
07-Feb-21 20:07 47.440004 -122.313606 0 473ft 13kts
07-Feb-21 20:08 47.445118 -122.313704 1 473ft 21kts
07-Feb-21 20:09 47.451551 -122.313548 359 473ft 24kts
07-Feb-21 20:10 47.458382 -122.313446 2 473ft 24kts
07-Feb-21 20:11 47.463684 -122.312449 89 473ft 0kts
07-Feb-21 20:12 47.463684 -122.312449 89 473ft 0kts
07-Feb-21 20:13 47.456702 -122.311183 180 476ft 119kts
07-Feb-21 20:14 47.411216 -122.308864 186 1913ft 192kts
07-Feb-21 20:15 47.354504 -122.309651 182 3642ft 211kts
07-Feb-21 20:16 47.303376 -122.263626 161 5354ft 223kts
07-Feb-21 20:17 47.243717 -122.236413 168 7173ft 230kts
07-Feb-21 20:18 47.181208 -122.211502 169 9405ft 239kts
07-Feb-21 20:19 47.115356 -122.185413 170 11481ft 251kts
07-Feb-21 20:20 47.046570 -122.158142 171 13426ft 263kts
07-Feb-21 20:21 46.973697 -122.129253 174 15058ft 283kts
07-Feb-21 20:22 46.894477 -122.097892 175 16423ft 307kts
07-Feb-21 20:23 46.810530 -122.064616 176 17873ft 316kts
07-Feb-21 20:24 46.724988 -122.030689 176 19200ft 320kts
07-Feb-21 20:25 46.638355 -121.996378 176 20084ft 326kts
07-Feb-21 20:26 46.551214 -121.984051 192 20935ft 311kts
07-Feb-21 20:27 46.466608 -121.978677 193 22178ft 302kts
07-Feb-21 20:28 46.379461 -121.973333 192 23072ft 330kts
07-Feb-21 20:29 46.287068 -121.967515 192 23113ft 336kts
07-Feb-21 20:30 46.193486 -121.961687 192 23141ft 338kts
07-Feb-21 20:31 46.099337 -121.955844 192 23142ft 340kts
07-Feb-21 20:32 46.004767 -121.949987 192 23144ft 341kts
07-Feb-21 20:33 45.909966 -121.944152 192 23145ft 342kts
07-Feb-21 20:34 45.815332 -121.938337 192 23134ft 341kts
07-Feb-21 20:35 45.720865 -121.932563 192 23134ft 340kts
07-Feb-21 20:36 45.626414 -121.926806 192 23136ft 340kts
07-Feb-21 20:37 45.532773 -121.921113 192 23137ft 340kts
07-Feb-21 20:38 45.438346 -121.915392 192 23137ft 341kts
07-Feb-21 20:39 45.343992 -121.909688 192 23135ft 339kts
07-Feb-21 20:40 45.250304 -121.904049 192 23134ft 336kts
07-Feb-21 20:41 45.157052 -121.898467 192 23132ft 335kts
07-Feb-21 20:42 45.063940 -121.892924 191 23132ft 335kts
07-Feb-21 20:44 44.971313 -121.887407 190 23129ft 333kts
07-Feb-21 20:45 44.879910 -121.881948 190 23114ft 332kts
07-Feb-21 20:46 44.788164 -121.876518 190 23105ft 330kts
07-Feb-21 20:47 44.696528 -121.871113 190 23034ft 331kts
07-Feb-21 20:48 44.604498 -121.865691 190 22982ft 331kts
07-Feb-21 20:49 44.513010 -121.860328 190 22982ft 329kts
07-Feb-21 20:50 44.421514 -121.854980 190 22989ft 329kts
07-Feb-21 20:51 44.330151 -121.849655 190 23001ft 329kts
07-Feb-21 20:52 44.238795 -121.844350 190 23004ft 330kts
07-Feb-21 20:53 44.147331 -121.839053 190 23005ft 330kts
07-Feb-21 20:54 44.055718 -121.833762 190 23006ft 330kts
07-Feb-21 20:55 43.964040 -121.828485 190 23007ft 331kts
07-Feb-21 20:56 43.872729 -121.823246 189 22998ft 331kts
07-Feb-21 20:57 43.781209 -121.818008 190 22998ft 329kts
07-Feb-21 20:58 43.689897 -121.812800 190 22999ft 329kts
07-Feb-21 20:59 43.598800 -121.807623 190 23001ft 329kts
07-Feb-21 20:59 43.522461 -121.803295 190 23001ft 329kts
07-Feb-21 21:01 43.415868 -121.797268 190 23003ft 329kts
07-Feb-21 21:01 43.339672 -121.792973 190 23005ft 329kts
07-Feb-21 21:03 43.233155 -121.786988 190 23022ft 329kts
07-Feb-21 21:03 43.156891 -121.782719 190 23035ft 330kts
07-Feb-21 21:04 43.065196 -121.777595 190 23054ft 330kts
07-Feb-21 21:06 42.958182 -121.771665 188 23063ft 330kts
07-Feb-21 21:06 42.881871 -121.767428 186 23054ft 330kts
07-Feb-21 21:07 42.790728 -121.762350 187 23054ft 327kts
07-Feb-21 21:08 42.699837 -121.757335 187 23054ft 326kts
07-Feb-21 21:09 42.609519 -121.752363 187 23056ft 326kts
07-Feb-21 21:10 42.518834 -121.747385 187 23056ft 326kts
07-Feb-21 21:11 42.428212 -121.742425 187 23057ft 326kts
07-Feb-21 21:12 42.337577 -121.737480 187 23058ft 326kts
07-Feb-21 21:13 42.246939 -121.732551 187 23059ft 327kts
07-Feb-21 21:14 42.156409 -121.727639 187 23060ft 327kts
07-Feb-21 21:15 42.065431 -121.723070 187 23061ft 327kts
07-Feb-21 21:16 41.974662 -121.718540 187 23062ft 327kts
07-Feb-21 21:17 41.884357 -121.714044 187 23055ft 328kts
07-Feb-21 21:18 41.793379 -121.709528 187 23054ft 326kts
07-Feb-21 21:19 41.702757 -121.705044 187 23056ft 326kts
07-Feb-21 21:20 41.612383 -121.700585 187 23058ft 326kts
07-Feb-21 21:21 41.521555 -121.696115 187 23058ft 326kts
07-Feb-21 21:22 41.430937 -121.691668 187 23059ft 326kts
07-Feb-21 21:23 41.340284 -121.687229 187 23060ft 327kts
07-Feb-21 21:24 41.249461 -121.682798 187 23052ft 327kts
07-Feb-21 21:25 41.158483 -121.678373 187 23017ft 328kts
07-Feb-21 21:26 41.067507 -121.673979 186 22998ft 328kts
07-Feb-21 21:27 40.976645 -121.669578 184 22997ft 325kts
07-Feb-21 21:28 40.887622 -121.665255 184 22991ft 323kts
07-Feb-21 21:29 40.798215 -121.660955 184 22990ft 321kts
07-Feb-21 21:30 40.709485 -121.656693 184 22991ft 320kts
07-Feb-21 21:31 40.620574 -121.652436 184 22992ft 320kts
07-Feb-21 21:32 40.531803 -121.648201 184 22995ft 320kts
07-Feb-21 21:33 40.442950 -121.643967 184 23004ft 320kts
07-Feb-21 21:34 40.353933 -121.639738 184 23022ft 320kts
07-Feb-21 21:35 40.265158 -121.635533 184 23031ft 320kts
07-Feb-21 21:36 40.175967 -121.631334 184 22380ft 321kts
07-Feb-21 21:37 40.087185 -121.627152 184 21516ft 319kts
07-Feb-21 21:38 39.999042 -121.623006 183 20655ft 317kts
07-Feb-21 21:39 39.911295 -121.618891 183 19795ft 315kts
07-Feb-21 21:40 39.825269 -121.614870 183 18419ft 298kts
07-Feb-21 21:41 39.745000 -121.611133 182 16817ft 283kts
07-Feb-21 21:42 39.667762 -121.607542 182 15218ft 274kts
07-Feb-21 21:43 39.593516 -121.604088 181 13769ft 261kts
07-Feb-21 21:44 39.522427 -121.600795 181 12377ft 253kts
07-Feb-21 21:45 39.452790 -121.597578 180 11047ft 246kts
07-Feb-21 21:46 39.390821 -121.594670 180 10998ft 204kts
07-Feb-21 21:47 39.336363 -121.592169 181 11005ft 196kts
07-Feb-21 21:48 39.281078 -121.589629 180 11002ft 201kts
07-Feb-21 21:49 39.224915 -121.587050 180 10999ft 203kts
07-Feb-21 21:50 39.168456 -121.573588 163 10654ft 220kts
07-Feb-21 21:51 39.109775 -121.549555 163 9674ft 222kts
07-Feb-21 21:52 39.050540 -121.526456 163 8690ft 223kts
07-Feb-21 21:53 38.991183 -121.504398 163 7707ft 222kts
07-Feb-21 21:54 38.932061 -121.483523 163 6694ft 218kts
07-Feb-21 21:55 38.878943 -121.465714 163 5572ft 181kts
07-Feb-21 21:56 38.833337 -121.451262 163 4987ft 159kts
07-Feb-21 21:57 38.792682 -121.438823 163 4990ft 147kts
07-Feb-21 21:58 38.754838 -121.423618 163 4997ft 141kts
07-Feb-21 21:59 38.717814 -121.407548 163 4998ft 139kts
07-Feb-21 22:00 38.679851 -121.392481 172 4661ft 144kts
07-Feb-21 22:01 38.642014 -121.394292 210 3730ft 142kts
07-Feb-21 22:02 38.608520 -121.419179 208 2370ft 124kts
07-Feb-21 22:03 38.579928 -121.438499 211 991ft 89kts
07-Feb-21 22:04 38.555887 -121.458883 211 980ft 106kts
07-Feb-21 22:05 38.531424 -121.478943 211 372ft 92kts
07-Feb-21 22:06 38.512193 -121.494709 216 24ft 60kts
07-Feb-21 22:07 38.508725 -121.498998 307 20ft 1kts
07-Feb-21 22:08 38.511286 -121.497316 32 22ft 18kts
07-Feb-21 22:09 38.513748 -121.497808 301 23ft 0kts
07-Feb-21 22:10 38.513749 -121.497809 301 23ft 0kts

Navigation Log

Ident Type
Flight plan parsing failed, navigation log unavailable